sensor_id;sensor_type;location;lat;lon;timestamp;P1;durP1;ratioP1;P2;durP2;ratioP2
572;SDS011;271;51.114;13.780;2022-11-18T00:01:18;33.33;;;14.73;;
572;SDS011;271;51.114;13.780;2022-11-18T00:03:47;36.05;;;16.88;;
572;SDS011;271;51.114;13.780;2022-11-18T00:06:15;33.33;;;15.30;;
572;SDS011;271;51.114;13.780;2022-11-18T00:08:44;32.30;;;13.90;;
572;SDS011;271;51.114;13.780;2022-11-18T00:11:13;33.95;;;14.43;;
572;SDS011;271;51.114;13.780;2022-11-18T00:14:04;33.20;;;15.77;;
572;SDS011;271;51.114;13.780;2022-11-18T00:16:43;32.92;;;14.88;;
572;SDS011;271;51.114;13.780;2022-11-18T00:19:11;32.88;;;15.32;;
572;SDS011;271;51.114;13.780;2022-11-18T00:21:38;34.25;;;15.05;;
572;SDS011;271;51.114;13.780;2022-11-18T00:24:06;35.63;;;16.92;;
572;SDS011;271;51.114;13.780;2022-11-18T00:26:33;35.00;;;15.48;;
572;SDS011;271;51.114;13.780;2022-11-18T00:29:01;35.45;;;15.13;;
572;SDS011;271;51.114;13.780;2022-11-18T00:31:30;37.25;;;17.05;;
572;SDS011;271;51.114;13.780;2022-11-18T00:33:58;34.72;;;15.93;;
572;SDS011;271;51.114;13.780;2022-11-18T00:36:25;37.97;;;16.30;;
572;SDS011;271;51.114;13.780;2022-11-18T00:38:54;33.95;;;14.95;;
572;SDS011;271;51.114;13.780;2022-11-18T00:41:21;35.35;;;16.17;;
572;SDS011;271;51.114;13.780;2022-11-18T00:43:48;35.97;;;17.30;;
572;SDS011;271;51.114;13.780;2022-11-18T00:46:16;33.55;;;15.15;;
572;SDS011;271;51.114;13.780;2022-11-18T00:48:44;32.95;;;15.43;;
572;SDS011;271;51.114;13.780;2022-11-18T00:51:12;35.03;;;15.90;;
572;SDS011;271;51.114;13.780;2022-11-18T00:53:41;32.95;;;15.05;;
572;SDS011;271;51.114;13.780;2022-11-18T00:56:08;33.60;;;15.57;;
572;SDS011;271;51.114;13.780;2022-11-18T00:58:36;36.88;;;16.80;;
572;SDS011;271;51.114;13.780;2022-11-18T01:01:04;34.80;;;14.45;;
572;SDS011;271;51.114;13.780;2022-11-18T01:03:33;38.17;;;17.20;;
572;SDS011;271;51.114;13.780;2022-11-18T01:06:00;36.03;;;16.23;;
572;SDS011;271;51.114;13.780;2022-11-18T01:08:27;34.10;;;14.98;;
572;SDS011;271;51.114;13.780;2022-11-18T01:10:55;35.40;;;16.13;;
572;SDS011;271;51.114;13.780;2022-11-18T01:13:43;35.05;;;15.50;;
572;SDS011;271;51.114;13.780;2022-11-18T01:16:09;35.17;;;14.90;;
572;SDS011;271;51.114;13.780;2022-11-18T01:18:38;38.33;;;17.88;;
572;SDS011;271;51.114;13.780;2022-11-18T01:21:05;36.05;;;16.67;;
572;SDS011;271;51.114;13.780;2022-11-18T01:23:32;40.00;;;16.38;;
572;SDS011;271;51.114;13.780;2022-11-18T01:26:02;37.00;;;16.48;;
572;SDS011;271;51.114;13.780;2022-11-18T01:28:30;34.03;;;14.00;;
572;SDS011;271;51.114;13.780;2022-11-18T01:31:02;34.28;;;14.90;;
572;SDS011;271;51.114;13.780;2022-11-18T01:33:30;34.47;;;13.73;;
572;SDS011;271;51.114;13.780;2022-11-18T01:35:58;37.63;;;15.68;;
572;SDS011;271;51.114;13.780;2022-11-18T01:38:26;34.95;;;16.13;;
572;SDS011;271;51.114;13.780;2022-11-18T01:40:54;36.15;;;15.85;;
572;SDS011;271;51.114;13.780;2022-11-18T01:43:22;36.55;;;17.10;;
572;SDS011;271;51.114;13.780;2022-11-18T01:45:50;33.15;;;14.90;;
572;SDS011;271;51.114;13.780;2022-11-18T01:48:19;35.00;;;15.70;;
572;SDS011;271;51.114;13.780;2022-11-18T01:50:51;37.30;;;16.02;;
572;SDS011;271;51.114;13.780;2022-11-18T01:53:25;35.10;;;14.60;;
572;SDS011;271;51.114;13.780;2022-11-18T01:55:55;34.70;;;15.68;;
572;SDS011;271;51.114;13.780;2022-11-18T01:58:29;39.80;;;18.05;;
572;SDS011;271;51.114;13.780;2022-11-18T02:01:01;36.55;;;14.57;;
572;SDS011;271;51.114;13.780;2022-11-18T02:03:30;34.63;;;15.80;;
572;SDS011;271;51.114;13.780;2022-11-18T02:05:58;31.63;;;13.82;;
572;SDS011;271;51.114;13.780;2022-11-18T02:08:28;33.50;;;13.95;;
572;SDS011;271;51.114;13.780;2022-11-18T02:10:57;33.00;;;14.82;;
572;SDS011;271;51.114;13.780;2022-11-18T02:13:24;37.50;;;15.32;;
572;SDS011;271;51.114;13.780;2022-11-18T02:15:52;37.72;;;15.02;;
572;SDS011;271;51.114;13.780;2022-11-18T02:18:30;32.03;;;14.13;;
572;SDS011;271;51.114;13.780;2022-11-18T02:21:09;32.85;;;14.93;;
572;SDS011;271;51.114;13.780;2022-11-18T02:23:53;33.35;;;14.85;;
572;SDS011;271;51.114;13.780;2022-11-18T02:26:42;31.75;;;13.00;;
572;SDS011;271;51.114;13.780;2022-11-18T02:29:38;32.63;;;13.50;;
572;SDS011;271;51.114;13.780;2022-11-18T02:32:10;34.00;;;13.98;;
572;SDS011;271;51.114;13.780;2022-11-18T02:34:43;32.45;;;13.90;;
572;SDS011;271;51.114;13.780;2022-11-18T02:37:16;31.83;;;14.77;;
572;SDS011;271;51.114;13.780;2022-11-18T02:39:50;33.67;;;14.48;;
572;SDS011;271;51.114;13.780;2022-11-18T02:42:20;36.10;;;14.25;;
572;SDS011;271;51.114;13.780;2022-11-18T02:44:53;36.22;;;16.05;;
572;SDS011;271;51.114;13.780;2022-11-18T02:47:24;32.78;;;14.43;;
572;SDS011;271;51.114;13.780;2022-11-18T02:49:55;32.33;;;13.70;;
572;SDS011;271;51.114;13.780;2022-11-18T02:52:25;33.40;;;15.80;;
572;SDS011;271;51.114;13.780;2022-11-18T02:54:53;33.80;;;14.10;;
572;SDS011;271;51.114;13.780;2022-11-18T02:57:22;32.65;;;13.55;;
572;SDS011;271;51.114;13.780;2022-11-18T02:59:52;31.23;;;12.50;;
572;SDS011;271;51.114;13.780;2022-11-18T03:02:19;30.70;;;12.80;;
572;SDS011;271;51.114;13.780;2022-11-18T03:04:48;32.88;;;13.20;;
572;SDS011;271;51.114;13.780;2022-11-18T03:07:18;32.25;;;13.68;;
572;SDS011;271;51.114;13.780;2022-11-18T03:09:51;35.65;;;15.32;;
572;SDS011;271;51.114;13.780;2022-11-18T03:12:22;32.70;;;13.48;;
572;SDS011;271;51.114;13.780;2022-11-18T03:15:00;31.92;;;12.73;;
572;SDS011;271;51.114;13.780;2022-11-18T03:17:40;30.83;;;12.75;;
572;SDS011;271;51.114;13.780;2022-11-18T03:20:14;32.38;;;14.07;;
572;SDS011;271;51.114;13.780;2022-11-18T03:22:48;30.80;;;13.55;;
572;SDS011;271;51.114;13.780;2022-11-18T03:25:21;32.78;;;14.02;;
572;SDS011;271;51.114;13.780;2022-11-18T03:27:54;33.65;;;14.50;;
572;SDS011;271;51.114;13.780;2022-11-18T03:30:25;33.33;;;14.90;;
572;SDS011;271;51.114;13.780;2022-11-18T03:32:57;34.13;;;14.82;;
572;SDS011;271;51.114;13.780;2022-11-18T03:35:29;36.20;;;14.55;;
572;SDS011;271;51.114;13.780;2022-11-18T03:38:00;32.97;;;14.55;;
572;SDS011;271;51.114;13.780;2022-11-18T03:40:32;35.05;;;17.30;;
572;SDS011;271;51.114;13.780;2022-11-18T03:43:05;34.85;;;17.23;;
572;SDS011;271;51.114;13.780;2022-11-18T03:45:38;40.17;;;18.45;;
572;SDS011;271;51.114;13.780;2022-11-18T03:48:09;39.47;;;18.35;;
572;SDS011;271;51.114;13.780;2022-11-18T03:50:41;38.22;;;18.90;;
572;SDS011;271;51.114;13.780;2022-11-18T03:53:11;37.75;;;18.23;;
572;SDS011;271;51.114;13.780;2022-11-18T03:55:42;38.45;;;17.08;;
572;SDS011;271;51.114;13.780;2022-11-18T03:58:15;34.60;;;16.33;;
572;SDS011;271;51.114;13.780;2022-11-18T04:00:49;35.90;;;16.48;;
572;SDS011;271;51.114;13.780;2022-11-18T04:03:22;35.25;;;17.15;;
572;SDS011;271;51.114;13.780;2022-11-18T04:05:50;35.63;;;17.40;;
572;SDS011;271;51.114;13.780;2022-11-18T04:08:25;35.05;;;16.30;;
572;SDS011;271;51.114;13.780;2022-11-18T04:10:57;31.05;;;14.77;;
572;SDS011;271;51.114;13.780;2022-11-18T04:13:29;34.15;;;16.08;;
572;SDS011;271;51.114;13.780;2022-11-18T04:16:00;35.33;;;16.30;;
572;SDS011;271;51.114;13.780;2022-11-18T04:18:27;34.42;;;17.20;;
572;SDS011;271;51.114;13.780;2022-11-18T04:20:55;37.70;;;17.60;;
572;SDS011;271;51.114;13.780;2022-11-18T04:23:22;35.70;;;16.83;;
572;SDS011;271;51.114;13.780;2022-11-18T04:25:49;37.15;;;17.65;;
572;SDS011;271;51.114;13.780;2022-11-18T04:28:17;36.55;;;18.02;;
572;SDS011;271;51.114;13.780;2022-11-18T04:30:44;33.85;;;15.45;;
572;SDS011;271;51.114;13.780;2022-11-18T04:33:13;37.25;;;17.83;;
572;SDS011;271;51.114;13.780;2022-11-18T04:35:40;32.88;;;15.40;;
572;SDS011;271;51.114;13.780;2022-11-18T04:38:08;38.13;;;18.35;;
572;SDS011;271;51.114;13.780;2022-11-18T04:40:35;32.20;;;14.00;;
572;SDS011;271;51.114;13.780;2022-11-18T04:43:02;38.58;;;17.08;;
572;SDS011;271;51.114;13.780;2022-11-18T04:45:30;32.35;;;15.40;;
572;SDS011;271;51.114;13.780;2022-11-18T04:47:57;35.95;;;15.18;;
572;SDS011;271;51.114;13.780;2022-11-18T04:50:26;33.85;;;16.05;;
572;SDS011;271;51.114;13.780;2022-11-18T04:52:53;34.88;;;15.60;;
572;SDS011;271;51.114;13.780;2022-11-18T04:55:21;35.60;;;16.42;;
572;SDS011;271;51.114;13.780;2022-11-18T04:57:48;36.22;;;17.33;;
572;SDS011;271;51.114;13.780;2022-11-18T05:00:16;35.15;;;15.30;;
572;SDS011;271;51.114;13.780;2022-11-18T05:02:43;34.70;;;16.50;;
572;SDS011;271;51.114;13.780;2022-11-18T05:05:11;36.25;;;17.35;;
572;SDS011;271;51.114;13.780;2022-11-18T05:07:39;34.53;;;16.50;;
572;SDS011;271;51.114;13.780;2022-11-18T05:10:07;36.05;;;16.65;;
572;SDS011;271;51.114;13.780;2022-11-18T05:12:35;35.40;;;17.10;;
572;SDS011;271;51.114;13.780;2022-11-18T05:15:13;36.88;;;15.50;;
572;SDS011;271;51.114;13.780;2022-11-18T05:17:41;39.72;;;17.85;;
572;SDS011;271;51.114;13.780;2022-11-18T05:20:09;39.88;;;17.45;;
572;SDS011;271;51.114;13.780;2022-11-18T05:22:37;38.05;;;16.45;;
572;SDS011;271;51.114;13.780;2022-11-18T05:25:07;36.13;;;15.90;;
572;SDS011;271;51.114;13.780;2022-11-18T05:27:35;36.92;;;17.58;;
572;SDS011;271;51.114;13.780;2022-11-18T05:30:02;37.13;;;16.80;;
572;SDS011;271;51.114;13.780;2022-11-18T05:32:30;39.28;;;17.92;;
572;SDS011;271;51.114;13.780;2022-11-18T05:34:58;39.20;;;17.90;;
572;SDS011;271;51.114;13.780;2022-11-18T05:37:25;35.50;;;15.82;;
572;SDS011;271;51.114;13.780;2022-11-18T05:39:53;39.33;;;17.77;;
572;SDS011;271;51.114;13.780;2022-11-18T05:42:21;33.95;;;15.10;;
572;SDS011;271;51.114;13.780;2022-11-18T05:45:06;37.70;;;17.90;;
572;SDS011;271;51.114;13.780;2022-11-18T05:47:34;39.60;;;16.35;;
572;SDS011;271;51.114;13.780;2022-11-18T05:50:23;34.30;;;15.00;;
572;SDS011;271;51.114;13.780;2022-11-18T05:52:50;35.72;;;17.15;;
572;SDS011;271;51.114;13.780;2022-11-18T05:55:18;37.03;;;15.48;;
572;SDS011;271;51.114;13.780;2022-11-18T05:57:49;33.17;;;14.10;;
572;SDS011;271;51.114;13.780;2022-11-18T06:00:17;36.60;;;15.35;;
572;SDS011;271;51.114;13.780;2022-11-18T06:02:44;35.17;;;14.90;;
572;SDS011;271;51.114;13.780;2022-11-18T06:05:15;35.00;;;14.45;;
572;SDS011;271;51.114;13.780;2022-11-18T06:07:44;34.88;;;14.98;;
572;SDS011;271;51.114;13.780;2022-11-18T06:10:12;34.92;;;14.52;;
572;SDS011;271;51.114;13.780;2022-11-18T06:12:44;33.63;;;14.43;;
572;SDS011;271;51.114;13.780;2022-11-18T06:15:17;32.83;;;13.30;;
572;SDS011;271;51.114;13.780;2022-11-18T06:17:49;33.28;;;13.70;;
572;SDS011;271;51.114;13.780;2022-11-18T06:20:20;33.10;;;13.95;;
572;SDS011;271;51.114;13.780;2022-11-18T06:22:49;35.50;;;14.20;;
572;SDS011;271;51.114;13.780;2022-11-18T06:25:19;34.60;;;14.02;;
572;SDS011;271;51.114;13.780;2022-11-18T06:27:46;35.38;;;14.60;;
572;SDS011;271;51.114;13.780;2022-11-18T06:30:17;35.50;;;15.18;;
572;SDS011;271;51.114;13.780;2022-11-18T06:32:44;36.22;;;15.45;;
572;SDS011;271;51.114;13.780;2022-11-18T06:35:12;32.35;;;13.45;;
572;SDS011;271;51.114;13.780;2022-11-18T06:37:39;35.88;;;16.33;;
572;SDS011;271;51.114;13.780;2022-11-18T06:40:07;33.05;;;15.40;;
572;SDS011;271;51.114;13.780;2022-11-18T06:42:35;33.97;;;14.88;;
572;SDS011;271;51.114;13.780;2022-11-18T06:45:22;35.00;;;16.33;;
572;SDS011;271;51.114;13.780;2022-11-18T06:47:49;38.15;;;16.83;;
572;SDS011;271;51.114;13.780;2022-11-18T06:50:16;34.72;;;14.30;;
572;SDS011;271;51.114;13.780;2022-11-18T06:52:44;36.47;;;14.98;;
572;SDS011;271;51.114;13.780;2022-11-18T06:55:11;33.92;;;14.38;;
572;SDS011;271;51.114;13.780;2022-11-18T06:57:38;34.83;;;15.55;;
572;SDS011;271;51.114;13.780;2022-11-18T07:00:06;34.05;;;14.05;;
572;SDS011;271;51.114;13.780;2022-11-18T07:02:36;30.42;;;13.55;;
572;SDS011;271;51.114;13.780;2022-11-18T07:05:03;37.67;;;16.58;;
572;SDS011;271;51.114;13.780;2022-11-18T07:07:33;35.53;;;15.10;;
572;SDS011;271;51.114;13.780;2022-11-18T07:10:00;33.45;;;15.20;;
572;SDS011;271;51.114;13.780;2022-11-18T07:12:28;32.40;;;13.85;;
572;SDS011;271;51.114;13.780;2022-11-18T07:14:55;36.60;;;15.85;;
572;SDS011;271;51.114;13.780;2022-11-18T07:17:23;36.22;;;15.63;;
572;SDS011;271;51.114;13.780;2022-11-18T07:19:51;35.03;;;15.35;;
572;SDS011;271;51.114;13.780;2022-11-18T07:22:19;32.35;;;13.10;;
572;SDS011;271;51.114;13.780;2022-11-18T07:24:46;31.83;;;13.95;;
572;SDS011;271;51.114;13.780;2022-11-18T07:27:14;32.22;;;12.50;;
572;SDS011;271;51.114;13.780;2022-11-18T07:29:41;30.92;;;12.65;;
572;SDS011;271;51.114;13.780;2022-11-18T07:32:08;31.83;;;11.85;;
572;SDS011;271;51.114;13.780;2022-11-18T07:34:36;30.17;;;12.45;;
572;SDS011;271;51.114;13.780;2022-11-18T07:37:05;33.63;;;13.57;;
572;SDS011;271;51.114;13.780;2022-11-18T07:39:32;31.63;;;12.73;;
572;SDS011;271;51.114;13.780;2022-11-18T07:41:59;32.22;;;11.50;;
572;SDS011;271;51.114;13.780;2022-11-18T07:44:27;34.47;;;12.93;;
572;SDS011;271;51.114;13.780;2022-11-18T07:46:54;33.20;;;13.27;;
572;SDS011;271;51.114;13.780;2022-11-18T07:49:21;31.58;;;12.68;;
572;SDS011;271;51.114;13.780;2022-11-18T07:51:49;30.40;;;12.38;;
572;SDS011;271;51.114;13.780;2022-11-18T07:54:18;32.60;;;12.65;;
572;SDS011;271;51.114;13.780;2022-11-18T07:56:46;32.92;;;11.82;;
572;SDS011;271;51.114;13.780;2022-11-18T07:59:13;30.33;;;12.88;;
572;SDS011;271;51.114;13.780;2022-11-18T08:01:40;34.47;;;13.55;;
572;SDS011;271;51.114;13.780;2022-11-18T08:04:08;34.42;;;13.98;;
572;SDS011;271;51.114;13.780;2022-11-18T08:06:37;31.80;;;14.05;;
572;SDS011;271;51.114;13.780;2022-11-18T08:09:05;34.30;;;12.30;;
572;SDS011;271;51.114;13.780;2022-11-18T08:11:34;36.28;;;14.35;;
572;SDS011;271;51.114;13.780;2022-11-18T08:14:02;33.65;;;14.05;;
572;SDS011;271;51.114;13.780;2022-11-18T08:16:31;34.47;;;14.45;;
572;SDS011;271;51.114;13.780;2022-11-18T08:18:59;34.88;;;14.57;;
572;SDS011;271;51.114;13.780;2022-11-18T08:21:26;33.60;;;15.13;;
572;SDS011;271;51.114;13.780;2022-11-18T08:23:54;30.38;;;12.63;;
572;SDS011;271;51.114;13.780;2022-11-18T08:26:23;37.05;;;16.17;;
572;SDS011;271;51.114;13.780;2022-11-18T08:28:52;36.22;;;15.07;;
572;SDS011;271;51.114;13.780;2022-11-18T08:31:20;34.70;;;15.13;;
572;SDS011;271;51.114;13.780;2022-11-18T08:33:52;35.47;;;15.23;;
572;SDS011;271;51.114;13.780;2022-11-18T08:36:21;33.92;;;15.40;;
572;SDS011;271;51.114;13.780;2022-11-18T08:38:50;35.97;;;17.38;;
572;SDS011;271;51.114;13.780;2022-11-18T08:41:18;36.13;;;15.85;;
572;SDS011;271;51.114;13.780;2022-11-18T08:43:50;36.22;;;16.13;;
572;SDS011;271;51.114;13.780;2022-11-18T08:46:18;37.00;;;17.48;;
572;SDS011;271;51.114;13.780;2022-11-18T08:48:46;39.60;;;19.55;;
572;SDS011;271;51.114;13.780;2022-11-18T08:51:13;39.63;;;18.23;;
572;SDS011;271;51.114;13.780;2022-11-18T08:53:41;43.22;;;18.73;;
572;SDS011;271;51.114;13.780;2022-11-18T08:56:10;43.97;;;18.92;;
572;SDS011;271;51.114;13.780;2022-11-18T08:58:40;36.28;;;15.65;;
572;SDS011;271;51.114;13.780;2022-11-18T09:01:07;39.20;;;17.35;;
572;SDS011;271;51.114;13.780;2022-11-18T09:03:36;38.38;;;18.02;;
572;SDS011;271;51.114;13.780;2022-11-18T09:06:05;40.75;;;16.45;;
572;SDS011;271;51.114;13.780;2022-11-18T09:08:33;38.50;;;16.02;;
572;SDS011;271;51.114;13.780;2022-11-18T09:11:03;37.17;;;16.63;;
572;SDS011;271;51.114;13.780;2022-11-18T09:13:32;43.35;;;16.95;;
572;SDS011;271;51.114;13.780;2022-11-18T09:15:59;41.70;;;16.67;;
572;SDS011;271;51.114;13.780;2022-11-18T09:18:28;35.97;;;16.65;;
572;SDS011;271;51.114;13.780;2022-11-18T09:20:58;37.95;;;17.67;;
572;SDS011;271;51.114;13.780;2022-11-18T09:23:27;38.03;;;16.60;;
572;SDS011;271;51.114;13.780;2022-11-18T09:25:57;38.35;;;15.70;;
572;SDS011;271;51.114;13.780;2022-11-18T09:28:25;36.97;;;16.17;;
572;SDS011;271;51.114;13.780;2022-11-18T09:30:52;41.92;;;17.55;;
572;SDS011;271;51.114;13.780;2022-11-18T09:33:20;38.45;;;17.38;;
572;SDS011;271;51.114;13.780;2022-11-18T09:35:47;40.50;;;17.25;;
572;SDS011;271;51.114;13.780;2022-11-18T09:38:16;39.10;;;17.52;;
572;SDS011;271;51.114;13.780;2022-11-18T09:40:44;42.90;;;19.40;;
572;SDS011;271;51.114;13.780;2022-11-18T09:43:20;44.65;;;20.05;;
572;SDS011;271;51.114;13.780;2022-11-18T09:45:57;42.53;;;21.73;;
572;SDS011;271;51.114;13.780;2022-11-18T09:48:29;42.38;;;20.58;;
572;SDS011;271;51.114;13.780;2022-11-18T09:51:11;40.70;;;19.95;;
572;SDS011;271;51.114;13.780;2022-11-18T09:53:40;42.92;;;19.83;;
572;SDS011;271;51.114;13.780;2022-11-18T09:56:11;48.00;;;21.38;;
572;SDS011;271;51.114;13.780;2022-11-18T09:58:41;43.20;;;20.38;;
572;SDS011;271;51.114;13.780;2022-11-18T10:01:11;45.78;;;20.77;;
572;SDS011;271;51.114;13.780;2022-11-18T10:03:40;44.95;;;19.45;;
572;SDS011;271;51.114;13.780;2022-11-18T10:06:12;43.50;;;20.20;;
572;SDS011;271;51.114;13.780;2022-11-18T10:08:51;45.53;;;20.23;;
572;SDS011;271;51.114;13.780;2022-11-18T10:11:27;42.47;;;17.95;;
572;SDS011;271;51.114;13.780;2022-11-18T10:14:04;41.67;;;17.80;;
572;SDS011;271;51.114;13.780;2022-11-18T10:16:42;38.75;;;17.35;;
572;SDS011;271;51.114;13.780;2022-11-18T10:19:19;38.53;;;16.08;;
572;SDS011;271;51.114;13.780;2022-11-18T10:21:59;39.55;;;15.55;;
572;SDS011;271;51.114;13.780;2022-11-18T10:24:42;36.35;;;14.15;;
572;SDS011;271;51.114;13.780;2022-11-18T10:27:14;37.63;;;14.48;;
572;SDS011;271;51.114;13.780;2022-11-18T10:29:43;35.97;;;14.05;;
572;SDS011;271;51.114;13.780;2022-11-18T10:32:12;34.38;;;13.57;;
572;SDS011;271;51.114;13.780;2022-11-18T10:34:45;33.38;;;13.82;;
572;SDS011;271;51.114;13.780;2022-11-18T10:37:20;34.10;;;13.35;;
572;SDS011;271;51.114;13.780;2022-11-18T10:39:52;34.90;;;14.07;;
572;SDS011;271;51.114;13.780;2022-11-18T10:42:22;36.03;;;14.50;;
572;SDS011;271;51.114;13.780;2022-11-18T10:44:53;34.30;;;15.35;;
572;SDS011;271;51.114;13.780;2022-11-18T10:47:25;39.28;;;16.05;;
572;SDS011;271;51.114;13.780;2022-11-18T10:49:55;33.92;;;13.52;;
572;SDS011;271;51.114;13.780;2022-11-18T10:52:24;40.33;;;15.77;;
572;SDS011;271;51.114;13.780;2022-11-18T10:55:05;35.80;;;14.65;;
572;SDS011;271;51.114;13.780;2022-11-18T10:57:35;36.63;;;14.80;;
572;SDS011;271;51.114;13.780;2022-11-18T11:00:30;37.00;;;15.45;;
572;SDS011;271;51.114;13.780;2022-11-18T11:03:14;38.72;;;15.52;;
572;SDS011;271;51.114;13.780;2022-11-18T11:05:48;38.35;;;15.60;;
572;SDS011;271;51.114;13.780;2022-11-18T11:08:59;36.38;;;14.60;;
572;SDS011;271;51.114;13.780;2022-11-18T11:11:31;37.28;;;15.57;;
572;SDS011;271;51.114;13.780;2022-11-18T11:14:09;40.40;;;17.10;;
572;SDS011;271;51.114;13.780;2022-11-18T11:16:44;37.47;;;16.13;;
572;SDS011;271;51.114;13.780;2022-11-18T11:19:19;42.33;;;16.38;;
572;SDS011;271;51.114;13.780;2022-11-18T11:21:50;38.90;;;16.40;;
572;SDS011;271;51.114;13.780;2022-11-18T11:24:18;39.50;;;16.67;;
572;SDS011;271;51.114;13.780;2022-11-18T11:26:55;38.45;;;15.57;;
572;SDS011;271;51.114;13.780;2022-11-18T11:29:33;38.97;;;17.00;;
572;SDS011;271;51.114;13.780;2022-11-18T11:32:17;40.58;;;17.60;;
572;SDS011;271;51.114;13.780;2022-11-18T11:34:54;41.38;;;19.05;;
572;SDS011;271;51.114;13.780;2022-11-18T11:37:31;44.10;;;20.23;;
572;SDS011;271;51.114;13.780;2022-11-18T11:40:15;45.35;;;20.38;;
572;SDS011;271;51.114;13.780;2022-11-18T11:42:56;42.20;;;21.92;;
572;SDS011;271;51.114;13.780;2022-11-18T11:45:37;48.65;;;23.77;;
572;SDS011;271;51.114;13.780;2022-11-18T11:48:23;48.85;;;21.77;;
572;SDS011;271;51.114;13.780;2022-11-18T11:50:59;46.70;;;22.40;;
572;SDS011;271;51.114;13.780;2022-11-18T11:53:47;47.47;;;22.42;;
572;SDS011;271;51.114;13.780;2022-11-18T11:56:29;48.15;;;23.65;;
572;SDS011;271;51.114;13.780;2022-11-18T11:59:09;43.08;;;20.67;;
572;SDS011;271;51.114;13.780;2022-11-18T12:05:01;47.70;;;24.20;;
572;SDS011;271;51.114;13.780;2022-11-18T12:07:42;47.53;;;22.52;;
572;SDS011;271;51.114;13.780;2022-11-18T12:10:17;46.80;;;22.63;;
572;SDS011;271;51.114;13.780;2022-11-18T12:12:53;41.90;;;19.67;;
572;SDS011;271;51.114;13.780;2022-11-18T12:15:43;40.72;;;19.20;;
572;SDS011;271;51.114;13.780;2022-11-18T12:18:19;43.72;;;20.85;;
572;SDS011;271;51.114;13.780;2022-11-18T12:20:52;47.10;;;21.85;;
572;SDS011;271;51.114;13.780;2022-11-18T12:23:29;44.60;;;21.75;;
572;SDS011;271;51.114;13.780;2022-11-18T12:25:59;45.30;;;22.05;;
572;SDS011;271;51.114;13.780;2022-11-18T12:28:30;43.53;;;21.15;;
572;SDS011;271;51.114;13.780;2022-11-18T12:34:03;43.50;;;21.02;;
572;SDS011;271;51.114;13.780;2022-11-18T12:36:43;48.20;;;23.15;;
572;SDS011;271;51.114;13.780;2022-11-18T12:42:36;48.83;;;23.02;;
572;SDS011;271;51.114;13.780;2022-11-18T12:48:39;53.38;;;27.42;;
572;SDS011;271;51.114;13.780;2022-11-18T12:54:24;53.97;;;27.80;;
572;SDS011;271;51.114;13.780;2022-11-18T12:56:54;49.50;;;25.75;;
572;SDS011;271;51.114;13.780;2022-11-18T12:59:27;56.45;;;24.98;;
572;SDS011;271;51.114;13.780;2022-11-18T13:02:03;51.67;;;27.55;;
572;SDS011;271;51.114;13.780;2022-11-18T13:04:42;51.38;;;25.83;;
572;SDS011;271;51.114;13.780;2022-11-18T13:07:10;49.75;;;24.95;;
572;SDS011;271;51.114;13.780;2022-11-18T13:09:53;52.10;;;25.35;;
572;SDS011;271;51.114;13.780;2022-11-18T13:12:23;53.70;;;27.80;;
572;SDS011;271;51.114;13.780;2022-11-18T13:14:53;49.88;;;25.00;;
572;SDS011;271;51.114;13.780;2022-11-18T13:17:38;54.90;;;26.60;;
572;SDS011;271;51.114;13.780;2022-11-18T13:20:21;49.78;;;25.23;;
572;SDS011;271;51.114;13.780;2022-11-18T13:22:56;51.55;;;25.20;;
572;SDS011;271;51.114;13.780;2022-11-18T13:25:42;48.72;;;23.73;;
572;SDS011;271;51.114;13.780;2022-11-18T13:28:16;49.30;;;24.77;;
572;SDS011;271;51.114;13.780;2022-11-18T13:30:51;48.92;;;25.52;;
572;SDS011;271;51.114;13.780;2022-11-18T13:33:25;44.97;;;23.75;;
572;SDS011;271;51.114;13.780;2022-11-18T13:35:54;48.63;;;24.75;;
572;SDS011;271;51.114;13.780;2022-11-18T13:38:27;46.58;;;25.92;;
572;SDS011;271;51.114;13.780;2022-11-18T13:40:54;47.50;;;22.95;;
572;SDS011;271;51.114;13.780;2022-11-18T13:43:32;48.10;;;24.20;;
572;SDS011;271;51.114;13.780;2022-11-18T13:46:02;48.45;;;23.98;;
572;SDS011;271;51.114;13.780;2022-11-18T13:48:32;45.03;;;24.15;;
572;SDS011;271;51.114;13.780;2022-11-18T13:51:07;46.75;;;21.88;;
572;SDS011;271;51.114;13.780;2022-11-18T13:53:36;43.83;;;23.65;;
572;SDS011;271;51.114;13.780;2022-11-18T13:56:05;46.55;;;24.08;;
572;SDS011;271;51.114;13.780;2022-11-18T13:58:41;47.42;;;25.65;;
572;SDS011;271;51.114;13.780;2022-11-18T14:01:12;45.55;;;23.10;;
572;SDS011;271;51.114;13.780;2022-11-18T14:03:46;45.80;;;23.50;;
572;SDS011;271;51.114;13.780;2022-11-18T14:06:24;50.25;;;25.02;;
572;SDS011;271;51.114;13.780;2022-11-18T14:09:03;46.35;;;25.60;;
572;SDS011;271;51.114;13.780;2022-11-18T14:11:35;44.25;;;22.63;;
572;SDS011;271;51.114;13.780;2022-11-18T14:14:04;50.65;;;25.92;;
572;SDS011;271;51.114;13.780;2022-11-18T14:16:33;45.55;;;24.23;;
572;SDS011;271;51.114;13.780;2022-11-18T14:19:01;47.63;;;25.35;;
572;SDS011;271;51.114;13.780;2022-11-18T14:21:31;44.95;;;23.08;;
572;SDS011;271;51.114;13.780;2022-11-18T14:24:00;47.70;;;27.40;;
572;SDS011;271;51.114;13.780;2022-11-18T14:26:29;46.65;;;25.25;;
572;SDS011;271;51.114;13.780;2022-11-18T14:28:59;45.95;;;25.65;;
572;SDS011;271;51.114;13.780;2022-11-18T14:31:29;47.35;;;25.25;;
572;SDS011;271;51.114;13.780;2022-11-18T14:34:04;48.60;;;26.10;;
572;SDS011;271;51.114;13.780;2022-11-18T14:36:43;47.95;;;25.17;;
572;SDS011;271;51.114;13.780;2022-11-18T14:39:11;48.00;;;24.60;;
572;SDS011;271;51.114;13.780;2022-11-18T14:41:44;44.50;;;25.25;;
572;SDS011;271;51.114;13.780;2022-11-18T14:44:15;47.80;;;25.67;;
572;SDS011;271;51.114;13.780;2022-11-18T14:46:44;46.30;;;23.98;;
572;SDS011;271;51.114;13.780;2022-11-18T14:49:16;47.45;;;24.02;;
572;SDS011;271;51.114;13.780;2022-11-18T14:51:47;46.65;;;25.30;;
572;SDS011;271;51.114;13.780;2022-11-18T14:54:15;49.88;;;26.15;;
572;SDS011;271;51.114;13.780;2022-11-18T14:56:45;46.47;;;23.55;;
572;SDS011;271;51.114;13.780;2022-11-18T14:59:14;49.92;;;24.45;;
572;SDS011;271;51.114;13.780;2022-11-18T15:01:43;45.22;;;24.55;;
572;SDS011;271;51.114;13.780;2022-11-18T15:04:11;48.03;;;24.02;;
572;SDS011;271;51.114;13.780;2022-11-18T15:06:38;47.20;;;24.75;;
572;SDS011;271;51.114;13.780;2022-11-18T15:09:07;47.45;;;24.15;;
572;SDS011;271;51.114;13.780;2022-11-18T15:11:34;44.80;;;24.60;;
572;SDS011;271;51.114;13.780;2022-11-18T15:14:02;44.05;;;22.85;;
572;SDS011;271;51.114;13.780;2022-11-18T15:16:30;47.47;;;26.70;;
572;SDS011;271;51.114;13.780;2022-11-18T15:18:59;46.75;;;25.45;;
572;SDS011;271;51.114;13.780;2022-11-18T15:21:28;45.08;;;23.92;;
572;SDS011;271;51.114;13.780;2022-11-18T15:23:55;46.92;;;24.85;;
572;SDS011;271;51.114;13.780;2022-11-18T15:26:25;49.38;;;28.80;;
572;SDS011;271;51.114;13.780;2022-11-18T15:28:55;51.40;;;29.33;;
572;SDS011;271;51.114;13.780;2022-11-18T15:31:23;51.83;;;29.10;;
572;SDS011;271;51.114;13.780;2022-11-18T15:33:51;54.50;;;26.83;;
572;SDS011;271;51.114;13.780;2022-11-18T15:36:19;47.13;;;25.30;;
572;SDS011;271;51.114;13.780;2022-11-18T15:38:48;53.35;;;29.45;;
572;SDS011;271;51.114;13.780;2022-11-18T15:41:23;52.60;;;24.92;;